Time;durP1;ratioP1;P1;durP2;ratioP2;P2;SDS_P1;SDS_P2;PMS_P1;PMS_P2;Temp;Humidity;BMP_temperature;BMP_pressure;BME280_temperature;BME280_humidity;BME280_pressure;Samples;Min_cycle;Max_cycle;Signal;HPM_P1;HPM_P2
2022/12/21 00:01:39;;;;;;;108.32;51.03;;;;;;;5.96;100.00;101332.56;4974883;28;20066;-81
2022/12/21 00:04:05;;;;;;;104.75;53.05;;;;;;;5.86;100.00;101322.81;4973970;28;20493;-80
2022/12/21 00:06:34;;;;;;;95.80;49.83;;;;;;;6.14;100.00;101332.97;4976094;28;20035;-81
2022/12/21 00:09:00;;;;;;;111.57;54.63;;;;;;;5.92;100.00;101327.63;4975438;28;20051;-82
2022/12/21 00:11:28;;;;;;;100.38;53.35;;;;;;;6.05;100.00;101334.50;4976150;28;20122;-81
2022/12/21 00:13:56;;;;;;;105.97;53.83;;;;;;;6.08;100.00;101330.81;4973831;28;20455;-81
2022/12/21 00:16:24;;;;;;;88.00;49.15;;;;;;;5.93;100.00;101324.88;4975737;28;20082;-80
2022/12/21 00:18:50;;;;;;;86.45;50.35;;;;;;;5.83;100.00;101328.28;4975018;28;20046;-82
2022/12/21 00:21:20;;;;;;;86.93;46.75;;;;;;;5.69;100.00;101321.41;4975524;28;20038;-81
2022/12/21 00:23:46;;;;;;;81.65;46.65;;;;;;;5.60;100.00;101314.19;4975480;28;20542;-80
2022/12/21 00:26:14;;;;;;;87.15;46.03;;;;;;;5.65;100.00;101314.69;4975966;28;20062;-82
2022/12/21 00:28:40;;;;;;;76.72;44.58;;;;;;;5.53;100.00;101305.06;4976349;28;20038;-83
2022/12/21 00:31:12;;;;;;;81.28;45.78;;;;;;;5.55;100.00;101298.72;4978544;28;20394;-82
2022/12/21 00:33:39;;;;;;;86.13;44.93;;;;;;;5.57;100.00;101296.81;4977880;28;20031;-81
2022/12/21 00:36:06;;;;;;;82.40;44.80;;;;;;;5.47;100.00;101293.16;4978287;28;20039;-81
2022/12/21 00:38:33;;;;;;;83.32;44.90;;;;;;;5.45;100.00;101291.59;4979790;28;20061;-80
2022/12/21 00:41:04;;;;;;;76.10;42.55;;;;;;;5.53;100.00;101284.88;4978435;28;20054;-82
2022/12/21 00:43:31;;;;;;;76.75;41.85;;;;;;;5.78;100.00;101293.56;4978841;28;20137;-80
2022/12/21 00:45:58;;;;;;;74.00;40.72;;;;;;;5.80;100.00;101286.44;4978834;28;20059;-82
2022/12/21 00:48:28;;;;;;;74.47;41.45;;;;;;;5.80;100.00;101286.44;4977171;28;20073;-83
2022/12/21 00:50:54;;;;;;;75.18;40.88;;;;;;;5.79;100.00;101282.94;4976776;28;20041;-80
2022/12/21 00:53:20;;;;;;;75.85;41.25;;;;;;;5.71;100.00;101286.13;4977183;28;20031;-80
2022/12/21 00:55:56;;;;;;;71.13;39.50;;;;;;;5.83;100.00;101280.94;4978182;28;20050;-83
2022/12/21 00:58:23;;;;;;;74.88;42.45;;;;;;;5.82;100.00;101280.09;4978594;28;20042;-83
2022/12/21 01:00:51;;;;;;;67.97;38.08;;;;;;;6.02;100.00;101279.50;4977389;28;20050;-83
2022/12/21 01:03:16;;;;;;;71.90;40.05;;;;;;;6.00;100.00;101284.00;4978929;28;20363;-82
2022/12/21 01:05:46;;;;;;;67.35;38.17;;;;;;;6.06;100.00;101288.84;4977278;28;20041;-83
2022/12/21 01:08:11;;;;;;;72.25;40.47;;;;;;;6.07;100.00;101279.13;4976677;28;20043;-81
2022/12/21 01:10:37;;;;;;;71.85;39.67;;;;;;;5.90;100.00;101274.31;4978069;28;20050;-82
2022/12/21 01:13:02;;;;;;;67.80;39.58;;;;;;;5.93;100.00;101276.72;4978126;28;20037;-83
2022/12/21 01:15:28;;;;;;;69.93;38.25;;;;;;;6.12;100.00;101266.47;4977314;28;20061;-81
2022/12/21 01:17:53;;;;;;;67.00;38.95;;;;;;;5.98;100.00;101274.56;4977596;28;20188;-83
2022/12/21 01:20:19;;;;;;;67.32;39.75;;;;;;;5.90;100.00;101271.69;4960404;28;20512;-83
2022/12/21 01:22:44;;;;;;;70.28;39.97;;;;;;;6.06;100.00;101261.69;4976726;28;20457;-83
2022/12/21 01:25:10;;;;;;;72.05;40.70;;;;;;;5.82;100.00;101258.22;4978212;28;20019;-84
2022/12/21 01:27:35;;;;;;;71.78;41.88;;;;;;;5.73;100.00;101271.06;4977605;28;20082;-82
2022/12/21 01:30:02;;;;;;;74.47;41.75;;;;;;;5.96;100.00;101266.81;4977483;28;20031;-82
2022/12/21 01:32:28;;;;;;;78.55;42.90;;;;;;;5.90;100.00;101261.16;4978020;28;20154;-83
2022/12/21 01:34:53;;;;;;;68.43;40.45;;;;;;;5.89;100.00;101255.06;4977854;28;20058;-81
2022/12/21 01:37:19;;;;;;;74.43;40.92;;;;;;;6.21;100.00;101258.72;4976816;28;20034;-81
2022/12/21 01:39:46;;;;;;;74.18;41.85;;;;;;;5.98;100.00;101254.34;4976173;28;20041;-83
2022/12/21 01:42:12;;;;;;;68.85;39.65;;;;;;;5.86;100.00;101250.03;4977260;28;20484;-82
2022/12/21 01:45:12;;;;;;;76.00;43.40;;;;;;;5.71;100.00;101249.31;4977014;28;20476;-82
2022/12/21 01:47:48;;;;;;;81.55;43.97;;;;;;;5.62;100.00;101247.38;4977645;28;20046;-80
2022/12/21 01:50:41;;;;;;;77.15;42.53;;;;;;;5.76;100.00;101238.47;4977331;28;20367;-83
2022/12/21 01:53:16;;;;;;;79.30;43.28;;;;;;;5.78;100.00;101246.22;4977379;28;20470;-83
2022/12/21 01:55:45;;;;;;;80.00;44.13;;;;;;;5.67;100.00;101242.59;4976611;28;20035;-82
2022/12/21 01:58:11;;;;;;;78.85;43.72;;;;;;;5.82;100.00;101242.44;4976466;28;20045;-83
2022/12/21 02:00:38;;;;;;;78.93;44.13;;;;;;;5.76;100.00;101246.38;4977250;28;20520;-82
2022/12/21 02:03:06;;;;;;;81.28;45.05;;;;;;;5.68;100.00;101254.81;4976763;28;20046;-82
2022/12/21 02:06:08;;;;;;;81.03;46.63;;;;;;;5.63;100.00;101243.78;4976697;28;20058;-83
2022/12/21 02:08:34;;;;;;;84.00;47.25;;;;;;;5.56;100.00;101234.69;4976165;28;20073;-82
2022/12/21 02:11:01;;;;;;;90.65;49.72;;;;;;;5.66;100.00;101240.94;4975566;28;20038;-83
2022/12/21 02:13:27;;;;;;;85.70;46.30;;;;;;;5.72;100.00;101229.13;4976750;28;20035;-82
2022/12/21 02:15:59;;;;;;;85.85;47.85;;;;;;;5.97;100.00;101228.16;4975310;28;20109;-82
2022/12/21 02:18:59;;;;;;;74.75;43.88;;;;;;;6.04;100.00;101227.56;4976045;28;20146;-83
2022/12/21 02:21:33;;;;;;;83.30;45.80;;;;;;;5.86;100.00;101218.47;4975095;28;20035;-81
2022/12/21 02:24:30;;;;;;;82.15;46.13;;;;;;;5.69;100.00;101214.41;4976257;28;20109;-81
2022/12/21 02:27:17;;;;;;;86.35;47.17;;;;;;;6.00;100.00;101209.53;4976697;28;20034;-81
2022/12/21 02:30:07;;;;;;;82.72;45.67;;;;;;;6.10;100.00;101194.69;4975434;28;20039;-81
2022/12/21 02:32:59;;;;;;;86.43;45.28;;;;;;;6.26;100.00;101195.22;4976796;28;20482;-82
2022/12/21 02:35:54;;;;;;;57.00;31.57;;;;;;;6.26;100.00;101192.59;4974876;28;20089;-83
2022/12/21 02:38:42;;;;;;;83.15;45.78;;;;;;;5.85;100.00;101184.31;4959259;28;20293;-82
2022/12/21 02:41:22;;;;;;;89.32;47.65;;;;;;;5.85;100.00;101186.97;4959427;28;20045;-82
2022/12/21 02:44:14;;;;;;;80.93;45.28;;;;;;;5.81;100.00;101180.25;4975194;28;20054;-83
2022/12/21 02:46:47;;;;;;;90.05;46.25;;;;;;;5.90;100.00;101176.97;4976379;28;20097;-81
2022/12/21 02:49:19;;;;;;;85.90;45.88;;;;;;;6.11;100.00;101191.13;4977564;28;20039;-83
2022/12/21 02:51:55;;;;;;;;;;;;;;;5.94;100.00;101188.91;4975383;28;20054;-82
2022/12/21 02:54:22;;;;;;;73.60;39.13;;;;;;;5.88;100.00;101176.22;4976310;28;19972;-81
2022/12/21 02:56:48;;;;;;;76.55;37.78;;;;;;;5.82;100.00;101174.03;4997283;28;20042;-81
2022/12/21 02:59:18;;;;;;;74.45;40.13;;;;;;;5.91;100.00;101183.88;4980671;28;20035;-84
2022/12/21 03:01:57;;;;;;;65.60;36.83;;;;;;;5.74;100.00;101188.59;4997196;28;20039;-79
2022/12/21 03:04:45;;;;;;;68.55;36.85;;;;;;;5.70;100.00;101175.81;4997709;28;20018;-82
2022/12/21 03:07:32;;;;;;;58.35;33.97;;;;;;;5.88;100.00;101182.34;4988315;28;20043;-82
2022/12/21 03:10:39;;;;;;;56.80;31.58;;;;;;;5.84;100.00;101177.38;4994173;28;20042;-80
2022/12/21 03:13:44;;;;;;;53.03;31.17;;;;;;;5.83;100.00;101175.72;4991717;28;20050;-81
2022/12/21 03:16:21;;;;;;;52.80;29.70;;;;;;;5.65;100.00;101167.41;4967467;28;20382;-82
2022/12/21 03:19:11;;;;;;;53.45;29.23;;;;;;;5.66;100.00;101171.72;4975512;28;20050;-83
2022/12/21 03:21:45;;;;;;;52.15;27.85;;;;;;;5.74;100.00;101172.81;4975077;28;20035;-82
2022/12/21 03:24:19;;;;;;;49.05;27.38;;;;;;;5.72;100.00;101173.91;4973637;28;20135;-82
2022/12/21 03:26:56;;;;;;;44.45;26.13;;;;;;;5.71;100.00;101166.94;4975198;28;20076;-82
2022/12/21 03:29:27;;;;;;;44.40;25.58;;;;;;;5.62;100.00;101167.66;4974360;28;20042;-82
2022/12/21 03:32:01;;;;;;;44.25;25.02;;;;;;;5.56;100.00;101158.44;4976220;28;20449;-81
2022/12/21 03:34:32;;;;;;;43.65;24.27;;;;;;;5.48;100.00;101154.69;4975412;28;20066;-82
2022/12/21 03:37:07;;;;;;;49.60;23.38;;;;;;;5.46;100.00;101151.34;4974552;28;20098;-83
2022/12/21 03:39:38;;;;;;;46.83;24.80;;;;;;;5.41;100.00;101161.34;4975188;28;20042;-82
2022/12/21 03:42:26;;;;;;;41.10;22.95;;;;;;;5.40;100.00;101142.09;4975302;28;20113;-82
2022/12/21 03:45:06;;;;;;;41.22;23.77;;;;;;;5.35;100.00;101128.47;4974766;28;20039;-82
2022/12/21 03:48:18;;;;;;;40.25;23.98;;;;;;;5.62;100.00;101150.09;4975288;28;20069;-82
2022/12/21 03:50:49;;;;;;;39.05;22.70;;;;;;;5.59;100.00;101152.94;4973438;28;20055;-81
2022/12/21 03:53:33;;;;;;;43.50;24.42;;;;;;;5.48;100.00;101146.78;4974819;28;20042;-83
2022/12/21 03:56:04;;;;;;;49.65;26.73;;;;;;;5.38;100.00;101149.28;4974742;28;20422;-83
2022/12/21 03:58:30;;;;;;;40.08;24.38;;;;;;;5.42;100.00;101144.63;4974869;28;20080;-81
2022/12/21 04:01:30;;;;;;;40.28;24.48;;;;;;;5.35;100.00;101144.25;4974742;28;20458;-83
2022/12/21 04:04:04;;;;;;;43.85;26.20;;;;;;;5.31;100.00;101158.56;4973462;28;20137;-82
2022/12/21 04:06:33;;;;;;;47.58;27.55;;;;;;;5.38;100.00;101151.91;4974602;28;20569;-83
2022/12/21 04:08:59;;;;;;;46.90;24.67;;;;;;;5.48;100.00;101136.28;4974522;28;20142;-82
2022/12/21 04:14:17;;;;;;;47.80;25.98;;;;;;;5.57;100.00;101139.06;4974662;28;20035;-82
2022/12/21 04:16:42;;;;;;;45.00;26.23;;;;;;;5.48;100.00;101131.88;4974519;28;20034;-84
2022/12/21 04:21:51;;;;;;;44.92;26.75;;;;;;;5.86;100.00;101131.66;4974776;28;20049;-82
2022/12/21 04:29:56;;;;;;;45.72;25.17;;;;;;;5.81;100.00;101120.59;4939193;28;20039;-82
2022/12/21 04:32:21;;;;;;;46.05;25.88;;;;;;;5.82;100.00;101116.19;4974674;28;20035;-81
2022/12/21 04:34:47;;;;;;;47.80;26.90;;;;;;;6.01;100.00;101127.00;4974453;28;20431;-82
2022/12/21 04:37:31;;;;;;;45.83;26.08;;;;;;;6.08;100.00;101117.66;4974034;28;20039;-81
2022/12/21 04:39:58;;;;;;;44.67;25.42;;;;;;;6.04;100.00;101122.34;4974075;28;20394;-82
2022/12/21 04:42:24;;;;;;;45.45;26.27;;;;;;;6.06;100.00;101124.84;4974883;28;20050;-81
2022/12/21 04:44:50;;;;;;;47.83;27.67;;;;;;;5.86;100.00;101112.41;4974449;28;20042;-81
2022/12/21 04:47:16;;;;;;;47.42;26.73;;;;;;;5.76;100.00;101119.28;4974268;28;20031;-81
2022/12/21 04:49:41;;;;;;;47.45;27.77;;;;;;;5.61;100.00;101113.38;4974159;28;20070;-82
2022/12/21 04:52:07;;;;;;;44.25;26.95;;;;;;;5.62;100.00;101109.81;4973167;28;20045;-81
2022/12/21 04:54:32;;;;;;;47.55;28.08;;;;;;;5.59;100.00;101103.00;4975183;28;20062;-81
2022/12/21 04:56:58;;;;;;;50.55;28.95;;;;;;;5.66;100.00;101101.59;4973894;28;20042;-81
2022/12/21 04:59:24;;;;;;;48.47;26.70;;;;;;;5.74;100.00;101104.44;4974162;28;20030;-80
2022/12/21 05:01:50;;;;;;;50.22;28.75;;;;;;;5.69;100.00;101114.50;4974460;28;20089;-81
2022/12/21 05:04:15;;;;;;;47.30;27.45;;;;;;;5.64;100.00;101103.47;4974846;28;20395;-82
2022/12/21 05:06:41;;;;;;;47.97;27.63;;;;;;;5.70;100.00;101103.00;4973812;28;20169;-82
2022/12/21 05:09:06;;;;;;;47.83;27.38;;;;;;;5.90;100.00;101093.59;4973938;28;20154;-82
2022/12/21 05:11:33;;;;;;;43.88;25.77;;;;;;;6.12;100.00;101100.69;4974133;28;20070;-84
2022/12/21 05:14:08;;;;;;;56.13;28.10;;;;;;;6.08;100.00;101104.50;4974602;28;20488;-82
2022/12/21 05:16:38;;;;;;;51.83;27.63;;;;;;;5.96;100.00;101095.78;4978719;28;20032;-83
2022/12/21 05:19:04;;;;;;;50.08;27.15;;;;;;;6.05;100.00;101112.66;4959756;28;20055;-83
2022/12/21 05:21:29;;;;;;;49.38;27.50;;;;;;;6.01;100.00;101103.31;4958178;28;20023;-83
2022/12/21 05:23:55;;;;;;;46.40;26.85;;;;;;;6.07;100.00;101105.47;4958429;28;20035;-82
2022/12/21 05:26:20;;;;;;;47.47;28.08;;;;;;;6.13;100.00;101105.00;4959046;28;20031;-83
2022/12/21 05:28:47;;;;;;;52.30;28.92;;;;;;;5.95;100.00;101093.25;4957750;28;20035;-80
2022/12/21 05:31:14;;;;;;;46.92;26.77;;;;;;;6.12;100.00;101092.81;4957968;28;20043;-82
2022/12/21 05:33:39;;;;;;;49.13;28.83;;;;;;;6.20;100.00;101085.97;4957013;28;20039;-81
2022/12/21 05:36:08;;;;;;;53.03;28.98;;;;;;;6.15;100.00;101097.81;4958887;28;20116;-83
2022/12/21 05:38:34;;;;;;;54.72;28.88;;;;;;;6.14;100.00;101096.97;4956870;28;20116;-82
2022/12/21 05:40:59;;;;;;;48.67;28.05;;;;;;;6.09;100.00;101101.78;4957749;28;20035;-81
2022/12/21 05:43:25;;;;;;;54.45;30.10;;;;;;;6.00;100.00;101099.03;4958100;28;20430;-83
2022/12/21 05:45:50;;;;;;;57.08;31.10;;;;;;;5.81;100.00;101088.19;4968513;28;20046;-82
2022/12/21 05:48:16;;;;;;;54.50;31.17;;;;;;;5.83;100.00;101091.56;4976790;28;20126;-83
2022/12/21 05:50:41;;;;;;;50.38;30.60;;;;;;;5.84;100.00;101085.31;4969070;28;20376;-80
2022/12/21 05:53:08;;;;;;;52.15;30.15;;;;;;;5.92;100.00;101086.47;4972561;28;20031;-82
2022/12/21 05:55:34;;;;;;;59.05;32.28;;;;;;;5.81;100.00;101088.19;4975747;28;20485;-84
2022/12/21 05:58:00;;;;;;;53.90;32.05;;;;;;;5.82;100.00;101081.97;4977853;28;20047;-82
2022/12/21 06:00:26;;;;;;;56.58;31.38;;;;;;;5.84;100.00;101083.53;4977006;28;20452;-81
2022/12/21 06:02:53;;;;;;;59.55;32.17;;;;;;;6.05;100.00;101088.97;4977098;28;20409;-82
2022/12/21 06:05:19;;;;;;;55.55;31.42;;;;;;;5.95;100.00;101083.59;4976790;28;20069;-83
2022/12/21 06:07:44;;;;;;;53.92;29.70;;;;;;;5.97;100.00;101080.81;4976839;28;20046;-84
2022/12/21 06:10:10;;;;;;;58.53;32.80;;;;;;;5.91;100.00;101089.19;4977465;28;20039;-81
2022/12/21 06:12:35;;;;;;;63.83;32.97;;;;;;;5.90;100.00;101092.81;4978013;28;20054;-82
2022/12/21 06:15:01;;;;;;;61.88;33.20;;;;;;;5.91;100.00;101078.66;4983906;28;20050;-80
2022/12/21 06:17:27;;;;;;;60.10;31.83;;;;;;;5.79;100.00;101079.59;4991836;28;20039;-81
2022/12/21 06:19:53;;;;;;;57.38;32.90;;;;;;;5.80;100.00;101087.34;4991505;28;20046;-81
2022/12/21 06:22:19;;;;;;;57.45;30.90;;;;;;;5.87;100.00;101090.38;4988196;28;20034;-80
2022/12/21 06:24:44;;;;;;;55.13;30.60;;;;;;;5.81;100.00;101086.41;4983237;28;20062;-81
2022/12/21 06:27:10;;;;;;;55.03;31.40;;;;;;;5.85;100.00;101081.75;4981791;28;20070;-79
2022/12/21 06:29:36;;;;;;;57.92;31.55;;;;;;;5.85;100.00;101079.13;4977157;28;20031;-80
2022/12/21 06:32:02;;;;;;;55.88;31.13;;;;;;;5.89;100.00;101075.34;4976637;28;20038;-83
2022/12/21 06:34:27;;;;;;;59.58;31.90;;;;;;;5.83;100.00;101075.78;4975927;28;20043;-81
2022/12/21 06:36:52;;;;;;;57.50;32.13;;;;;;;5.72;100.00;101066.91;4976102;28;20043;-81
2022/12/21 06:39:18;;;;;;;58.17;31.33;;;;;;;5.80;100.00;101076.00;4976034;28;20516;-81
2022/12/21 06:41:43;;;;;;;60.70;31.98;;;;;;;5.65;100.00;101073.59;4974717;28;20129;-80
2022/12/21 06:44:09;;;;;;;57.30;32.95;;;;;;;5.93;100.00;101076.78;4976039;28;20064;-83
2022/12/21 06:46:34;;;;;;;62.08;35.22;;;;;;;5.79;100.00;101079.59;4976570;28;20478;-84
2022/12/21 06:49:02;;;;;;;64.93;34.22;;;;;;;5.72;100.00;101085.31;4974025;28;20051;-83
2022/12/21 06:51:28;;;;;;;62.03;34.53;;;;;;;5.68;100.00;101094.41;4975599;28;20104;-84
2022/12/21 06:53:54;;;;;;;59.35;33.50;;;;;;;5.96;100.00;101085.28;4974909;28;20445;-81
2022/12/21 06:56:24;;;;;;;58.67;33.00;;;;;;;6.11;100.00;101091.13;4973361;28;20037;-81
2022/12/21 06:58:53;;;;;;;60.92;34.42;;;;;;;6.07;100.00;101097.56;4975075;28;20039;-79
2022/12/21 07:01:22;;;;;;;60.80;34.28;;;;;;;5.93;100.00;101092.56;4974445;28;20058;-79
2022/12/21 07:03:48;;;;;;;60.30;34.00;;;;;;;5.92;100.00;101093.50;4974743;28;20098;-79
2022/12/21 07:06:15;;;;;;;60.47;34.45;;;;;;;6.00;100.00;101088.50;4975211;28;20174;-80
2022/12/21 07:08:42;;;;;;;64.72;34.80;;;;;;;5.88;100.00;101089.44;4975499;28;20101;-80
2022/12/21 07:11:10;;;;;;;61.30;34.22;;;;;;;5.82;100.00;101095.13;4975380;28;20117;-80
2022/12/21 07:13:37;;;;;;;65.15;35.58;;;;;;;5.89;100.00;101091.13;4975369;28;20038;-81
2022/12/21 07:16:04;;;;;;;66.88;34.28;;;;;;;5.81;100.00;101085.56;4975207;28;20023;-82
2022/12/21 07:18:29;;;;;;;65.63;34.72;;;;;;;5.81;100.00;101089.03;4975231;28;20047;-79
2022/12/21 07:21:02;;;;;;;62.17;33.33;;;;;;;5.93;100.00;101074.16;4975178;28;20041;-80
2022/12/21 07:23:28;;;;;;;66.70;36.05;;;;;;;5.90;100.00;101066.50;4975720;28;20039;-81
2022/12/21 07:25:53;;;;;;;66.22;36.13;;;;;;;5.92;100.00;101081.19;4974842;28;20039;-83
2022/12/21 07:28:20;;;;;;;66.75;35.13;;;;;;;5.79;100.00;101079.59;4976813;28;20540;-78
2022/12/21 07:30:48;;;;;;;65.45;34.72;;;;;;;5.69;100.00;101074.19;4975817;28;20494;-83
2022/12/21 07:33:17;;;;;;;64.95;34.63;;;;;;;5.73;100.00;101083.53;4975312;28;20039;-81
2022/12/21 07:35:42;;;;;;;66.07;34.78;;;;;;;5.82;100.00;101079.34;4975218;28;20035;-78
2022/12/21 07:38:08;;;;;;;62.35;34.00;;;;;;;5.77;100.00;101087.59;4974771;28;20031;-79
2022/12/21 07:40:34;;;;;;;59.92;33.28;;;;;;;5.77;100.00;101092.03;4975263;28;20109;-81
2022/12/21 07:42:59;;;;;;;65.95;33.58;;;;;;;5.69;100.00;101090.81;4975208;28;20481;-78
2022/12/21 07:45:37;;;;;;;62.72;32.97;;;;;;;5.90;100.00;101087.53;4973688;28;20035;-82
2022/12/21 07:48:05;;;;;;;61.22;33.05;;;;;;;5.92;100.00;101090.88;4974004;28;20047;-80
2022/12/21 07:50:30;;;;;;;62.55;32.42;;;;;;;6.07;100.00;101081.78;4975889;28;20031;-81
2022/12/21 07:52:58;;;;;;;61.85;33.03;;;;;;;5.91;100.00;101086.56;4977340;28;20492;-79
2022/12/21 07:55:26;;;;;;;57.45;29.58;;;;;;;6.11;100.00;101091.13;4975682;28;20037;-78
2022/12/21 07:57:52;;;;;;;58.67;30.73;;;;;;;6.02;100.00;101086.56;4974519;28;20043;-79
2022/12/21 08:00:18;;;;;;;55.63;29.58;;;;;;;5.98;100.00;101091.25;4974635;28;20383;-79
2022/12/21 08:02:44;;;;;;;51.45;28.50;;;;;;;5.92;100.00;101091.72;4974969;28;20029;-77
2022/12/21 08:05:09;;;;;;;56.33;28.80;;;;;;;6.01;100.00;101090.16;4974874;28;20035;-80
2022/12/21 08:07:34;;;;;;;50.28;27.90;;;;;;;6.36;100.00;101090.88;4974395;28;20039;-82
2022/12/21 08:10:01;;;;;;;47.20;27.35;;;;;;;6.11;100.00;101086.69;4974953;28;20185;-82
2022/12/21 08:12:28;;;;;;;51.80;26.92;;;;;;;6.15;100.00;101077.63;4960283;28;20134;-80
2022/12/21 08:14:54;;;;;;;52.10;27.67;;;;;;;6.06;100.00;101082.75;4966584;28;20039;-81
2022/12/21 08:17:19;;;;;;;48.13;27.42;;;;;;;6.03;100.00;101088.25;4967964;28;20039;-82
2022/12/21 08:19:45;;;;;;;51.17;28.50;;;;;;;6.26;100.00;101084.66;4966556;28;20026;-83
2022/12/21 08:22:10;;;;;;;47.30;27.27;;;;;;;6.28;100.00;101088.00;4966414;28;20054;-83
2022/12/21 08:24:36;;;;;;;48.28;26.17;;;;;;;6.40;100.00;101092.28;4966462;28;20042;-80
2022/12/21 08:27:01;;;;;;;44.22;23.88;;;;;;;6.31;100.00;101082.50;4966244;28;20490;-81
2022/12/21 08:29:27;;;;;;;46.38;25.40;;;;;;;6.18;100.00;101084.41;4967187;28;20077;-83
2022/12/21 08:31:53;;;;;;;43.17;24.38;;;;;;;6.41;100.00;101093.97;4966221;28;20101;-83
2022/12/21 08:34:19;;;;;;;47.30;26.08;;;;;;;6.31;100.00;101092.19;4966610;28;20039;-82
2022/12/21 08:36:44;;;;;;;42.92;24.73;;;;;;;6.33;100.00;101099.00;4966748;28;20043;-81
2022/12/21 08:39:10;;;;;;;47.78;25.75;;;;;;;6.20;100.00;101095.66;4966038;28;20052;-82
2022/12/21 08:41:36;;;;;;;47.08;26.45;;;;;;;6.43;100.00;101094.69;4966683;28;20355;-81
2022/12/21 08:44:02;;;;;;;51.78;28.67;;;;;;;6.28;100.00;101105.59;4966269;28;20039;-82
2022/12/21 08:46:27;;;;;;;48.03;25.90;;;;;;;6.14;100.00;101096.13;4967316;28;20485;-80
2022/12/21 08:48:53;;;;;;;46.97;26.15;;;;;;;6.06;100.00;101094.13;4966441;28;20039;-83
2022/12/21 08:51:18;;;;;;;51.20;27.73;;;;;;;5.99;100.00;101099.97;4969749;28;20031;-82
2022/12/21 08:53:44;;;;;;;44.88;26.20;;;;;;;6.12;100.00;101109.44;4970248;28;20039;-80
2022/12/21 08:56:10;;;;;;;44.60;25.02;;;;;;;6.41;100.00;101104.50;4971606;28;20181;-82
2022/12/21 08:58:36;;;;;;;42.45;23.88;;;;;;;6.54;100.00;101099.94;4970942;28;20046;-83
2022/12/21 09:01:01;;;;;;;41.58;24.48;;;;;;;6.37;100.00;101100.44;4969719;28;20046;-82
2022/12/21 09:03:27;;;;;;;46.28;24.58;;;;;;;6.21;100.00;101105.22;4971352;28;20082;-81
2022/12/21 09:05:54;;;;;;;40.83;23.52;;;;;;;6.20;100.00;101106.19;4970502;28;20042;-84
2022/12/21 09:08:20;;;;;;;41.45;22.52;;;;;;;6.23;100.00;101100.72;4970736;28;20042;-82
2022/12/21 09:10:45;;;;;;;37.97;21.00;;;;;;;6.32;100.00;101110.50;4969132;28;20035;-81
2022/12/21 09:13:11;;;;;;;37.72;21.73;;;;;;;6.24;100.00;101107.63;4970147;28;20266;-81
2022/12/21 09:15:43;;;;;;;43.83;22.58;;;;;;;6.37;100.00;101107.50;4970711;28;20493;-82
2022/12/21 09:18:09;;;;;;;;;;;;;;;6.32;100.00;101102.59;4970868;28;20522;-79
2022/12/21 09:20:35;;;;;;;38.70;21.63;;;;;;;6.41;100.00;101109.78;4969844;28;19929;-82
2022/12/21 09:23:01;;;;;;;35.83;20.60;;;;;;;6.51;100.00;101110.72;4970178;28;20062;-82
2022/12/21 09:25:27;;;;;;;37.88;19.17;;;;;;;6.50;100.00;101116.94;4970112;28;20145;-82
2022/12/21 09:27:52;;;;;;;31.40;18.73;;;;;;;6.53;100.00;101114.06;4968986;28;20512;-84
2022/12/21 09:30:18;;;;;;;35.58;19.05;;;;;;;6.30;100.00;101101.88;4969986;28;20133;-81
2022/12/21 09:32:43;;;;;;;32.30;19.08;;;;;;;6.23;100.00;101105.97;4970179;28;20118;-82
2022/12/21 09:35:10;;;;;;;30.63;18.42;;;;;;;6.35;100.00;101110.25;4969712;28;20138;-80
2022/12/21 09:37:36;;;;;;;33.42;19.33;;;;;;;6.35;100.00;101097.09;4976914;28;20110;-81
2022/12/21 09:40:04;;;;;;;28.90;17.05;;;;;;;6.39;100.00;101093.28;4973822;28;20072;-79
2022/12/21 09:42:35;;;;;;;31.85;17.95;;;;;;;6.54;100.00;101099.09;4975280;28;20030;-82
2022/12/21 09:45:08;;;;;;;30.58;17.83;;;;;;;6.61;100.00;101089.75;4972675;28;20027;-82
2022/12/21 09:47:49;;;;;;;28.10;17.65;;;;;;;6.57;100.00;101093.59;4974745;28;20043;-81
2022/12/21 09:50:23;;;;;;;29.10;17.27;;;;;;;6.59;100.00;101092.53;4970648;28;20151;-81
2022/12/21 09:52:57;;;;;;;30.00;17.23;;;;;;;6.52;100.00;101096.59;4968967;28;20453;-81
2022/12/21 09:55:25;;;;;;;31.13;17.92;;;;;;;6.52;100.00;101096.59;4971552;28;20525;-82
2022/12/21 09:57:55;;;;;;;26.55;15.70;;;;;;;6.63;100.00;101083.41;4973604;28;20039;-81
2022/12/21 10:00:24;;;;;;;25.60;16.95;;;;;;;6.70;100.00;101084.59;4970904;28;20524;-83
2022/12/21 10:03:13;;;;;;;28.73;17.52;;;;;;;6.53;100.00;101085.09;4967200;28;20398;-83
2022/12/21 10:06:03;;;;;;;28.45;16.92;;;;;;;6.52;100.00;101091.34;4968363;28;20142;-83
2022/12/21 10:08:43;;;;;;;26.35;16.17;;;;;;;6.41;100.00;101088.72;4969167;28;20146;-82
2022/12/21 10:11:20;;;;;;;29.15;16.38;;;;;;;6.32;100.00;101072.81;4968056;28;20043;-84
2022/12/21 10:14:09;;;;;;;29.70;17.75;;;;;;;6.31;100.00;101071.97;4974583;28;20041;-87
2022/12/21 10:16:44;;;;;;;31.58;18.75;;;;;;;6.25;100.00;101067.19;4969824;28;20106;-83
2022/12/21 10:19:40;;;;;;;30.42;17.25;;;;;;;6.26;100.00;101068.88;4967992;28;20508;-84
2022/12/21 10:22:13;;;;;;;33.78;18.27;;;;;;;6.28;100.00;101066.09;4949414;28;20049;-84
2022/12/21 10:24:56;;;;;;;30.20;17.75;;;;;;;6.33;100.00;101059.50;4950044;28;20033;-82
2022/12/21 10:27:43;;;;;;;;;;;;;;;6.30;100.00;101038.69;4968039;28;20117;-83
2022/12/21 10:30:12;;;;;;;36.45;18.10;;;;;;;6.35;100.00;101049.72;4969497;28;19945;-85
2022/12/21 10:32:40;;;;;;;32.90;18.83;;;;;;;6.38;100.00;101036.31;4971035;28;20489;-81
2022/12/21 10:35:33;;;;;;;30.17;18.27;;;;;;;6.41;100.00;101043.97;4969325;28;20042;-83
2022/12/21 10:37:59;;;;;;;28.67;17.65;;;;;;;6.63;100.00;101038.63;4969319;28;20050;-83
2022/12/21 10:40:32;;;;;;;29.70;17.15;;;;;;;6.45;100.00;101032.22;4970387;28;20034;-83
2022/12/21 10:42:58;;;;;;;32.75;17.13;;;;;;;6.63;100.00;101036.00;4969188;28;20154;-84
2022/12/21 10:45:25;;;;;;;28.85;17.58;;;;;;;6.69;100.00;101030.22;4969685;28;20039;-83
2022/12/21 10:47:51;;;;;;;34.33;17.92;;;;;;;6.71;100.00;101033.59;4978373;28;20046;-84
2022/12/21 10:50:25;;;;;;;31.77;17.67;;;;;;;6.88;100.00;101031.38;4988231;28;20049;-81
2022/12/21 10:52:55;;;;;;;32.70;17.80;;;;;;;6.75;100.00;101029.75;4989239;28;20026;-82
2022/12/21 10:55:26;;;;;;;32.95;19.20;;;;;;;6.71;100.00;101033.59;4989816;28;20035;-85
2022/12/21 10:58:01;;;;;;;32.15;18.58;;;;;;;6.75;100.00;101028.91;4989758;28;20031;-84
2022/12/21 11:00:38;;;;;;;34.40;19.30;;;;;;;6.72;100.00;101024.72;4992128;28;20030;-83
2022/12/21 11:03:19;;;;;;;37.70;19.15;;;;;;;6.83;100.00;101028.28;4989753;28;20083;-84
2022/12/21 11:05:48;;;;;;;37.17;20.38;;;;;;;6.83;100.00;101026.47;4990650;28;20091;-87
2022/12/21 11:08:15;;;;;;;36.60;20.42;;;;;;;6.85;100.00;101015.81;4986662;28;20051;-86
2022/12/21 11:10:52;;;;;;;33.47;19.52;;;;;;;6.97;100.00;101018.28;4989159;28;20015;-82
2022/12/21 11:13:19;;;;;;;36.45;19.63;;;;;;;7.01;100.00;101024.13;4979532;28;20031;-82
2022/12/21 11:16:13;;;;;;;37.17;20.98;;;;;;;6.96;100.00;101021.06;4969398;28;20070;-83
2022/12/21 11:18:43;;;;;;;32.03;18.73;;;;;;;6.94;100.00;101022.94;4929140;29;20109;-85
2022/12/21 11:21:21;;;;;;;35.13;21.05;;;;;;;6.84;100.00;101017.59;4927976;29;20119;-83
2022/12/21 11:24:05;;;;;;;34.97;19.05;;;;;;;6.99;100.00;101005.81;4926874;29;20094;-82
2022/12/21 11:26:38;;;;;;;32.70;18.60;;;;;;;7.12;100.00;101001.19;4926840;29;20035;-83
2022/12/21 11:29:11;;;;;;;33.53;18.90;;;;;;;7.04;100.00;100998.34;4943566;28;20082;-80
2022/12/21 11:31:37;;;;;;;32.83;19.35;;;;;;;6.98;100.00;100993.59;4966840;28;20031;-82
2022/12/21 11:34:03;;;;;;;33.67;18.20;;;;;;;7.04;100.00;100989.59;4966667;28;20050;-81
2022/12/21 11:36:29;;;;;;;30.75;18.92;;;;;;;7.02;100.00;100978.38;4968325;28;20038;-83